Time;durP1;ratioP1;P1;durP2;ratioP2;P2;SDS_P1;SDS_P2;PMS_P1;PMS_P2;Temp;Humidity;BMP_temperature;BMP_pressure;BME280_temperature;BME280_humidity;BME280_pressure;Samples;Min_cycle;Max_cycle;Signal;HPM_P1;HPM_P2
2022/01/08 00:00:18;;;;;;;4.13;2.15;;;17.90;99.90;;;;;;4213770;28;20211;-75
2022/01/08 00:02:20;;;;;;;3.90;2.33;;;17.90;99.90;;;;;;4213990;28;20260;-75
2022/01/08 00:04:23;;;;;;;4.03;2.20;;;17.90;99.90;;;;;;4213316;28;20214;-75
2022/01/08 00:06:25;;;;;;;5.32;2.58;;;17.90;99.90;;;;;;4213559;28;20214;-75
2022/01/08 00:08:28;;;;;;;4.22;2.28;;;17.90;99.90;;;;;;4213476;28;20272;-75
2022/01/08 00:10:32;;;;;;;3.58;2.30;;;17.80;99.90;;;;;;4220546;28;20590;-75
2022/01/08 00:12:35;;;;;;;3.72;2.28;;;17.90;99.90;;;;;;4230573;28;20278;-75
2022/01/08 00:14:38;;;;;;;4.90;2.40;;;17.90;99.90;;;;;;4216899;28;20260;-75
2022/01/08 00:16:40;;;;;;;4.60;2.20;;;17.80;99.90;;;;;;4213489;28;20617;-75
2022/01/08 00:18:42;;;;;;;4.15;2.33;;;17.80;99.90;;;;;;4212996;28;20259;-75
2022/01/08 00:20:45;;;;;;;3.03;2.10;;;17.80;99.90;;;;;;4224168;28;20205;-75
2022/01/08 00:22:50;;;;;;;3.42;2.00;;;17.80;99.90;;;;;;4228652;28;20317;-75
2022/01/08 00:24:53;;;;;;;4.00;2.15;;;17.80;99.90;;;;;;4228594;28;20681;-75
2022/01/08 00:26:56;;;;;;;4.43;2.20;;;17.80;99.90;;;;;;4224472;28;20583;-75
2022/01/08 00:28:59;;;;;;;2.75;1.83;;;17.80;99.90;;;;;;4229195;28;20217;-75
2022/01/08 00:31:03;;;;;;;4.82;2.30;;;17.70;99.90;;;;;;4227175;28;20250;-75
2022/01/08 00:33:05;;;;;;;3.55;1.95;;;17.80;99.90;;;;;;4228575;28;20213;-75
2022/01/08 00:35:09;;;;;;;4.35;1.88;;;17.70;99.90;;;;;;4228812;28;20723;-75
2022/01/08 00:37:11;;;;;;;2.17;1.70;;;17.80;99.90;;;;;;4228919;28;20271;-75
2022/01/08 00:39:14;;;;;;;3.45;2.15;;;17.70;99.90;;;;;;4228770;28;20662;-75
2022/01/08 00:41:16;;;;;;;4.15;2.05;;;17.70;99.90;;;;;;4244523;28;20205;-75
2022/01/08 00:43:20;;;;;;;4.00;2.10;;;17.70;99.90;;;;;;4245844;28;20611;-75
2022/01/08 00:45:22;;;;;;;3.15;2.13;;;17.70;99.90;;;;;;4245880;28;20592;-75
2022/01/08 00:47:25;;;;;;;3.70;2.10;;;17.70;99.90;;;;;;4240854;28;20271;-75
2022/01/08 00:49:27;;;;;;;3.63;1.85;;;17.70;99.90;;;;;;4228479;28;20205;-75
2022/01/08 00:51:29;;;;;;;3.63;1.98;;;17.70;99.90;;;;;;4228511;28;20302;-75
2022/01/08 00:53:32;;;;;;;4.05;1.75;;;17.70;99.90;;;;;;4228472;28;20222;-75
2022/01/08 00:55:34;;;;;;;4.50;1.90;;;17.70;99.90;;;;;;4228939;28;20341;-75
2022/01/08 00:57:37;;;;;;;3.25;1.52;;;17.70;99.90;;;;;;4228452;28;20214;-75
2022/01/08 00:59:41;;;;;;;3.33;1.90;;;17.70;99.90;;;;;;4228367;28;20306;-75
2022/01/08 01:01:44;;;;;;;3.90;2.20;;;17.60;99.90;;;;;;4227407;28;20337;-75
2022/01/08 01:03:46;;;;;;;3.22;2.00;;;17.60;99.90;;;;;;4223533;28;20631;-75
2022/01/08 01:05:48;;;;;;;2.90;1.88;;;17.70;99.90;;;;;;4226949;28;20218;-75
2022/01/08 01:07:51;;;;;;;4.45;2.28;;;17.60;99.90;;;;;;4228410;28;20214;-75
2022/01/08 01:09:53;;;;;;;3.38;1.88;;;17.60;99.90;;;;;;4228708;28;20225;-75
2022/01/08 01:11:57;;;;;;;4.13;2.15;;;17.60;99.90;;;;;;4228501;28;20210;-75
2022/01/08 01:14:00;;;;;;;2.78;1.95;;;17.60;99.90;;;;;;4227118;28;20968;-75
2022/01/08 01:16:04;;;;;;;2.90;1.90;;;17.60;99.90;;;;;;4228408;28;20214;-75
2022/01/08 01:18:06;;;;;;;4.18;1.92;;;17.60;99.90;;;;;;4228336;28;20251;-75
2022/01/08 01:20:10;;;;;;;3.75;1.88;;;17.60;99.90;;;;;;4228180;28;20222;-75
2022/01/08 01:22:16;;;;;;;3.58;2.20;;;17.60;99.90;;;;;;4226740;28;20218;-75
2022/01/08 01:24:22;;;;;;;3.50;1.75;;;17.60;99.90;;;;;;4228695;28;20214;-75
2022/01/08 01:26:27;;;;;;;4.18;1.92;;;17.60;99.90;;;;;;4228577;28;20221;-75
2022/01/08 01:28:44;;;;;;;3.88;1.77;;;17.60;99.90;;;;;;4228438;28;20214;-75
2022/01/08 01:47:07;;;;;;;3.83;2.00;;;17.50;99.90;;;;;;4248413;27;20177;-75
2022/01/08 01:49:10;;;;;;;1.77;1.52;;;17.50;99.90;;;;;;4248292;27;20317;-75
2022/01/08 01:51:19;;;;;;;3.08;1.92;;;17.50;99.90;;;;;;4230806;28;20685;-75
2022/01/08 01:53:22;;;;;;;3.45;1.65;;;17.50;99.90;;;;;;4231823;28;20216;-75
2022/01/08 01:55:24;;;;;;;3.67;1.60;;;17.50;99.90;;;;;;4231149;27;20252;-75
2022/01/08 01:57:28;;;;;;;2.78;1.70;;;17.50;99.90;;;;;;4247727;27;20212;-75
2022/01/08 01:59:32;;;;;;;3.83;1.63;;;17.40;99.90;;;;;;4247869;27;20623;-75
2022/01/08 02:01:34;;;;;;;3.35;1.70;;;17.40;99.90;;;;;;4234112;27;20206;-75
2022/01/08 02:03:37;;;;;;;5.05;1.70;;;17.40;99.90;;;;;;4231255;28;21741;-75
2022/01/08 02:05:41;;;;;;;2.92;1.70;;;17.40;99.90;;;;;;4231183;28;20263;-75
2022/01/08 02:07:44;;;;;;;3.63;1.80;;;17.40;99.90;;;;;;4230698;28;20218;-74
2022/01/08 02:09:46;;;;;;;4.30;1.92;;;17.40;99.90;;;;;;4230881;28;20326;-74
2022/01/08 02:12:02;;;;;;;2.97;1.98;;;17.40;99.90;;;;;;4230687;28;20282;-74
2022/01/08 02:14:05;;;;;;;2.45;1.70;;;17.40;99.90;;;;;;4226792;28;20257;-74
2022/01/08 02:16:16;;;;;;;4.45;1.90;;;17.40;99.90;;;;;;4230997;28;20217;-74
2022/01/08 02:18:18;;;;;;;2.70;1.60;;;17.30;99.90;;;;;;4230470;28;20209;-74
2022/01/08 02:20:22;;;;;;;2.28;1.50;;;17.40;99.90;;;;;;4229898;28;20267;-74
2022/01/08 02:22:24;;;;;;;3.60;1.88;;;17.40;99.90;;;;;;4230745;28;20262;-74
2022/01/08 02:24:27;;;;;;;2.47;1.65;;;17.30;99.90;;;;;;4230908;28;20266;-74
2022/01/08 02:26:29;;;;;;;3.10;1.60;;;17.40;99.90;;;;;;4230362;28;20222;-74
2022/01/08 02:28:32;;;;;;;4.70;2.10;;;17.40;99.90;;;;;;4230489;28;20222;-74
2022/01/08 02:30:34;;;;;;;3.25;1.80;;;17.40;99.90;;;;;;4220493;28;20246;-74
2022/01/08 02:32:40;;;;;;;3.55;1.75;;;17.30;99.90;;;;;;4230155;28;20229;-74
2022/01/08 02:34:44;;;;;;;2.25;1.60;;;17.30;99.90;;;;;;4230510;28;20240;-74
2022/01/08 02:36:48;;;;;;;2.92;1.90;;;17.30;99.90;;;;;;4230623;28;20213;-74
2022/01/08 02:38:50;;;;;;;4.13;1.65;;;17.30;99.90;;;;;;4230540;28;20221;-74
2022/01/08 02:40:59;;;;;;;2.75;1.58;;;17.30;99.90;;;;;;4242013;27;20254;-74
2022/01/08 02:43:04;;;;;;;3.70;1.98;;;17.30;99.90;;;;;;4247329;27;20254;-74
2022/01/08 02:45:08;;;;;;;3.70;1.77;;;17.30;99.90;;;;;;4246800;27;20266;-74
2022/01/08 02:47:13;;;;;;;2.72;1.60;;;17.30;99.90;;;;;;4234610;27;20266;-74
2022/01/08 02:49:16;;;;;;;2.53;1.65;;;17.30;99.90;;;;;;4230091;28;20263;-74
2022/01/08 02:51:18;;;;;;;3.22;1.63;;;17.20;99.90;;;;;;4225231;27;20237;-74
2022/01/08 02:53:22;;;;;;;2.88;1.52;;;17.30;99.90;;;;;;4232302;27;20255;-74
2022/01/08 02:55:25;;;;;;;3.38;2.00;;;17.30;99.90;;;;;;4230536;28;20218;-74
2022/01/08 02:57:27;;;;;;;4.53;2.03;;;17.30;99.90;;;;;;4230528;28;20267;-74
2022/01/08 02:59:30;;;;;;;2.55;1.63;;;17.30;99.90;;;;;;4230433;28;20251;-74
2022/01/08 03:01:33;;;;;;;3.35;1.83;;;17.30;99.90;;;;;;4229380;28;20214;-74
2022/01/08 03:03:35;;;;;;;5.20;1.90;;;17.20;99.90;;;;;;4228460;28;20214;-74
2022/01/08 03:05:37;;;;;;;2.90;1.67;;;17.20;99.90;;;;;;4230047;28;20624;-74
2022/01/08 03:07:40;;;;;;;3.03;1.70;;;17.20;99.90;;;;;;4238862;27;20289;-74
2022/01/08 03:09:46;;;;;;;3.15;1.77;;;17.20;99.90;;;;;;4246994;27;20217;-75
2022/01/08 03:11:48;;;;;;;2.38;1.40;;;17.20;99.90;;;;;;4223955;28;20237;-74
2022/01/08 03:13:50;;;;;;;2.70;1.60;;;17.20;99.90;;;;;;4230117;28;20214;-74
2022/01/08 03:15:53;;;;;;;3.15;1.90;;;17.20;99.90;;;;;;4229720;28;20221;-74
2022/01/08 03:17:55;;;;;;;3.95;1.58;;;17.20;99.90;;;;;;4229826;28;20210;-74
2022/01/08 03:20:03;;;;;;;2.53;1.80;;;17.20;99.90;;;;;;4229720;28;20210;-74
2022/01/08 03:22:06;;;;;;;2.85;1.90;;;17.20;99.90;;;;;;4229531;28;20718;-74
2022/01/08 03:24:14;;;;;;;4.57;1.88;;;17.20;99.90;;;;;;4229377;28;20283;-74
2022/01/08 03:26:20;;;;;;;3.80;1.70;;;17.20;99.90;;;;;;4229764;28;20221;-74
2022/01/08 03:28:22;;;;;;;3.67;2.10;;;17.20;99.90;;;;;;4227412;28;20674;-74
2022/01/08 03:30:28;;;;;;;3.85;1.80;;;17.10;99.90;;;;;;4229447;27;20686;-74
2022/01/08 03:32:30;;;;;;;3.70;1.63;;;17.20;99.90;;;;;;4229211;27;20294;-74
2022/01/08 03:34:32;;;;;;;3.22;1.70;;;17.10;99.90;;;;;;4236654;27;20708;-74
2022/01/08 03:36:35;;;;;;;3.10;1.75;;;17.10;99.90;;;;;;4246672;27;20665;-74
2022/01/08 03:38:38;;;;;;;2.95;1.75;;;17.10;99.90;;;;;;4231504;27;20270;-74
2022/01/08 03:40:40;;;;;;;4.18;1.83;;;17.10;99.90;;;;;;4240177;27;20205;-74
2022/01/08 03:42:44;;;;;;;3.97;1.90;;;17.10;99.90;;;;;;4246375;27;20270;-74
2022/01/08 03:44:46;;;;;;;2.63;1.58;;;17.10;99.90;;;;;;4246052;27;20217;-74
2022/01/08 03:46:48;;;;;;;3.50;1.95;;;17.10;99.90;;;;;;4240788;27;20976;-74
2022/01/08 03:49:13;;;;;;;3.65;1.85;;;17.10;99.90;;;;;;4229149;28;20259;-74
2022/01/08 03:51:16;;;;;;;3.85;1.73;;;17.00;99.90;;;;;;4229193;28;20214;-74
2022/01/08 03:53:18;;;;;;;2.60;1.55;;;17.00;99.90;;;;;;4228135;28;20260;-74
2022/01/08 03:55:22;;;;;;;4.07;1.80;;;17.10;99.90;;;;;;4227772;28;20673;-74
2022/01/08 03:57:24;;;;;;;3.35;1.88;;;17.00;99.90;;;;;;4246738;27;20245;-74
2022/01/08 03:59:28;;;;;;;3.95;1.88;;;17.10;99.90;;;;;;4242043;27;20209;-74
2022/01/08 04:01:30;;;;;;;2.67;1.48;;;17.00;99.90;;;;;;4226995;28;20270;-74
2022/01/08 04:03:33;;;;;;;3.53;1.58;;;17.00;99.90;;;;;;4229491;28;20622;-74
2022/01/08 04:05:35;;;;;;;3.85;1.80;;;17.00;99.90;;;;;;4228884;28;20217;-74
2022/01/08 04:07:37;;;;;;;2.92;1.88;;;17.00;99.90;;;;;;4229007;28;20622;-74
2022/01/08 04:09:39;;;;;;;3.17;1.90;;;17.00;99.90;;;;;;4228754;28;20236;-74
2022/01/08 04:11:42;;;;;;;4.38;1.95;;;17.00;99.90;;;;;;4227749;28;20275;-74
2022/01/08 04:13:45;;;;;;;3.75;1.60;;;17.00;99.90;;;;;;4229279;27;20274;-74
2022/01/08 04:15:51;;;;;;;2.58;1.40;;;17.00;99.90;;;;;;4229194;28;20666;-74
2022/01/08 04:17:54;;;;;;;2.75;1.67;;;17.00;99.90;;;;;;4229056;28;20226;-74
2022/01/08 04:19:57;;;;;;;3.22;1.70;;;16.90;99.90;;;;;;4228852;28;20255;-74
2022/01/08 04:22:10;;;;;;;3.25;1.73;;;16.90;99.90;;;;;;4228904;28;20262;-74
2022/01/08 04:24:12;;;;;;;2.47;1.80;;;16.90;99.90;;;;;;4228707;28;20214;-74
2022/01/08 04:26:15;;;;;;;3.63;2.08;;;17.00;99.90;;;;;;4226429;28;20619;-74
2022/01/08 04:28:18;;;;;;;3.20;1.75;;;16.90;99.90;;;;;;4226999;28;20271;-74
2022/01/08 04:30:20;;;;;;;2.67;1.70;;;17.00;99.90;;;;;;4228466;28;20270;-74
2022/01/08 04:32:24;;;;;;;2.30;1.50;;;17.00;99.90;;;;;;4228751;28;20242;-74
2022/01/08 04:34:27;;;;;;;3.90;2.00;;;16.90;99.90;;;;;;4228672;28;20210;-75
2022/01/08 04:36:29;;;;;;;3.45;1.80;;;16.90;99.90;;;;;;4228947;28;20270;-74
2022/01/08 04:38:32;;;;;;;3.13;1.88;;;16.90;99.90;;;;;;4228683;28;20266;-74
2022/01/08 04:40:35;;;;;;;2.95;1.45;;;16.90;99.90;;;;;;4228623;28;20218;-74
2022/01/08 04:42:37;;;;;;;3.20;1.70;;;16.90;99.90;;;;;;4225915;27;20247;-74
2022/01/08 04:44:39;;;;;;;4.13;1.85;;;16.90;99.90;;;;;;4245303;28;20277;-74
2022/01/08 04:46:42;;;;;;;2.97;1.55;;;16.90;99.90;;;;;;4230235;28;20283;-74
2022/01/08 04:48:45;;;;;;;3.25;1.95;;;16.90;99.90;;;;;;4227902;28;20213;-74
2022/01/08 04:50:48;;;;;;;2.80;1.65;;;16.80;99.90;;;;;;4228519;28;20217;-74
2022/01/08 04:52:50;;;;;;;3.63;1.92;;;16.80;99.90;;;;;;4228553;28;20697;-74
2022/01/08 04:54:53;;;;;;;3.47;1.85;;;16.80;99.90;;;;;;4228712;28;20218;-74
2022/01/08 04:56:55;;;;;;;2.83;1.67;;;16.90;99.90;;;;;;4228753;28;20217;-74
2022/01/08 04:58:58;;;;;;;2.78;1.83;;;16.80;99.90;;;;;;4229320;28;20666;-74
2022/01/08 05:01:00;;;;;;;2.75;1.65;;;16.80;99.90;;;;;;4228538;28;20964;-74
2022/01/08 05:03:02;;;;;;;4.88;2.10;;;16.80;99.90;;;;;;4226909;28;20221;-74
2022/01/08 05:05:07;;;;;;;3.08;1.67;;;16.90;99.90;;;;;;4230770;28;20217;-74
2022/01/08 05:07:09;;;;;;;2.35;1.60;;;16.90;99.90;;;;;;4231950;28;20217;-74
2022/01/08 05:09:12;;;;;;;3.35;2.05;;;16.80;99.90;;;;;;4231766;28;20619;-74
2022/01/08 05:11:14;;;;;;;3.67;1.77;;;16.80;99.90;;;;;;4231720;28;20217;-74
2022/01/08 05:13:16;;;;;;;5.10;2.13;;;16.80;99.90;;;;;;4242506;27;20228;-74
2022/01/08 05:15:19;;;;;;;3.63;1.90;;;16.80;99.90;;;;;;4248599;27;20262;-74
2022/01/08 05:17:27;;;;;;;3.63;2.10;;;16.80;99.90;;;;;;4248743;27;20254;-74
2022/01/08 05:21:54;;;;;;;3.55;1.80;;;16.80;99.90;;;;;;4231576;27;20210;-74
2022/01/08 05:23:58;;;;;;;3.97;1.85;;;16.80;99.90;;;;;;4230809;28;20209;-74
2022/01/08 05:26:02;;;;;;;4.18;1.90;;;16.80;99.90;;;;;;4231368;28;20214;-74
2022/01/08 05:28:05;;;;;;;3.92;2.08;;;16.80;99.90;;;;;;4231738;28;20217;-74
2022/01/08 05:30:09;;;;;;;4.05;1.50;;;16.80;99.90;;;;;;4231376;28;20217;-74
2022/01/08 05:32:16;;;;;;;3.30;1.73;;;16.80;99.90;;;;;;4231482;28;20551;-74
2022/01/08 05:34:18;;;;;;;3.45;1.80;;;16.80;99.90;;;;;;4231156;28;20243;-75
2022/01/08 05:36:22;;;;;;;5.60;2.10;;;16.80;99.90;;;;;;4236754;27;20250;-74
2022/01/08 05:38:25;;;;;;;3.80;1.95;;;16.70;99.90;;;;;;4231865;28;20623;-74
2022/01/08 05:40:28;;;;;;;4.68;2.38;;;16.70;99.90;;;;;;4228943;27;20730;-74
2022/01/08 05:42:30;;;;;;;4.45;2.00;;;16.70;99.90;;;;;;4231306;28;20634;-74
2022/01/08 05:44:32;;;;;;;2.63;1.52;;;16.70;99.90;;;;;;4231268;28;20218;-74
2022/01/08 05:46:35;;;;;;;3.13;1.60;;;16.70;99.90;;;;;;4231260;28;20217;-74
2022/01/08 05:48:40;;;;;;;2.90;1.98;;;16.70;99.90;;;;;;4228540;28;20218;-74
2022/01/08 05:50:42;;;;;;;4.93;2.25;;;16.70;99.90;;;;;;4230332;28;20213;-74
2022/01/08 05:52:44;;;;;;;4.95;2.08;;;16.70;99.90;;;;;;4231301;28;20245;-74
2022/01/08 05:54:48;;;;;;;2.47;1.83;;;16.70;99.90;;;;;;4229864;28;20267;-74
2022/01/08 05:56:51;;;;;;;3.45;2.08;;;16.70;99.90;;;;;;4231013;28;20217;-74
2022/01/08 05:58:53;;;;;;;3.88;2.13;;;16.70;99.90;;;;;;4231254;28;20258;-74
2022/01/08 06:00:56;;;;;;;3.28;1.65;;;16.70;99.90;;;;;;4230987;28;20616;-74
2022/01/08 06:02:58;;;;;;;3.03;1.60;;;16.70;99.90;;;;;;4231100;28;20217;-74
2022/01/08 06:05:00;;;;;;;2.88;1.73;;;16.70;99.90;;;;;;4231218;28;20214;-74
2022/01/08 06:07:03;;;;;;;3.45;1.75;;;16.70;99.90;;;;;;4231054;28;20217;-74
2022/01/08 06:09:05;;;;;;;4.13;1.88;;;16.70;99.90;;;;;;4230561;28;20209;-74
2022/01/08 06:11:09;;;;;;;3.70;1.80;;;16.70;99.90;;;;;;4229886;28;20670;-74
2022/01/08 06:13:11;;;;;;;4.30;1.92;;;16.70;99.90;;;;;;4230722;28;20233;-75
2022/01/08 06:15:15;;;;;;;3.33;1.95;;;16.70;99.90;;;;;;4230527;28;20221;-74
2022/01/08 06:17:17;;;;;;;2.75;1.90;;;16.70;99.90;;;;;;4231837;27;21059;-74
2022/01/08 06:19:20;;;;;;;4.13;2.20;;;16.60;99.90;;;;;;4247596;27;20217;-74
2022/01/08 06:21:22;;;;;;;4.72;2.03;;;16.60;99.90;;;;;;4247556;27;20217;-74
2022/01/08 06:23:24;;;;;;;4.05;2.00;;;16.60;99.90;;;;;;4247448;27;20269;-74
2022/01/08 06:25:27;;;;;;;3.50;1.98;;;16.60;99.90;;;;;;4247606;27;20212;-74
2022/01/08 06:27:30;;;;;;;3.97;1.67;;;16.60;99.90;;;;;;4242215;27;20658;-74
2022/01/08 06:29:33;;;;;;;3.70;1.80;;;16.60;99.90;;;;;;4226633;27;20226;-74
2022/01/08 06:31:36;;;;;;;3.08;2.13;;;16.60;99.90;;;;;;4228139;28;20225;-74
2022/01/08 06:33:38;;;;;;;4.18;1.90;;;16.60;99.90;;;;;;4238770;27;20237;-74
2022/01/08 06:35:40;;;;;;;3.20;1.83;;;16.60;99.90;;;;;;4247365;27;20213;-74
2022/01/08 06:37:42;;;;;;;3.10;1.85;;;16.60;99.90;;;;;;4230575;28;20218;-74
2022/01/08 06:39:45;;;;;;;4.45;1.85;;;16.60;99.90;;;;;;4230233;27;20265;-75
2022/01/08 06:41:47;;;;;;;5.00;2.10;;;16.60;99.90;;;;;;4247543;27;20213;-74
2022/01/08 06:43:51;;;;;;;3.78;1.98;;;16.60;99.90;;;;;;4247236;27;20212;-74
2022/01/08 06:45:53;;;;;;;4.10;2.30;;;16.60;99.90;;;;;;4230121;27;20282;-74
2022/01/08 06:47:55;;;;;;;2.67;1.70;;;16.60;99.90;;;;;;4230058;28;20210;-74
2022/01/08 06:49:58;;;;;;;3.65;1.98;;;16.60;99.90;;;;;;4230478;28;20214;-74
2022/01/08 06:52:00;;;;;;;3.60;2.05;;;16.60;99.90;;;;;;4230432;28;20916;-74
2022/01/08 06:54:03;;;;;;;2.83;1.88;;;16.60;99.90;;;;;;4230158;28;20238;-74
2022/01/08 06:56:06;;;;;;;5.33;2.07;;;16.60;99.90;;;;;;4230197;28;20217;-74
2022/01/08 06:58:08;;;;;;;2.33;1.42;;;16.50;99.90;;;;;;4230122;28;20262;-74
2022/01/08 07:00:13;;;;;;;4.32;1.83;;;16.60;99.90;;;;;;4230205;28;20221;-74
2022/01/08 07:02:15;;;;;;;4.22;2.22;;;16.50;99.90;;;;;;4228667;28;20294;-73
2022/01/08 07:04:18;;;;;;;4.00;1.92;;;16.60;99.90;;;;;;4230105;28;20214;-73
2022/01/08 07:06:20;;;;;;;3.78;2.10;;;16.50;99.90;;;;;;4229805;28;20213;-73
2022/01/08 07:08:22;;;;;;;4.30;1.80;;;16.50;99.90;;;;;;4230041;28;20206;-73
2022/01/08 07:10:25;;;;;;;5.18;2.10;;;16.50;99.90;;;;;;4230154;28;20669;-73
2022/01/08 07:12:27;;;;;;;4.22;2.13;;;16.50;99.90;;;;;;4229799;28;20225;-73
2022/01/08 07:14:29;;;;;;;4.20;2.17;;;16.50;99.90;;;;;;4229546;28;20233;-73
2022/01/08 07:16:33;;;;;;;4.03;2.00;;;16.50;99.90;;;;;;4230053;28;20225;-73
2022/01/08 07:18:35;;;;;;;3.75;1.58;;;16.50;99.90;;;;;;4228280;28;20226;-73
2022/01/08 07:20:38;;;;;;;3.40;1.77;;;16.50;99.90;;;;;;4229903;28;20278;-73
2022/01/08 07:22:43;;;;;;;3.67;1.67;;;16.60;99.90;;;;;;4229628;28;20639;-73
2022/01/08 07:24:46;;;;;;;4.15;1.90;;;16.50;99.90;;;;;;4229572;28;20221;-73
2022/01/08 07:26:48;;;;;;;3.33;2.00;;;16.50;99.90;;;;;;4230440;27;20217;-73
2022/01/08 07:28:50;;;;;;;3.45;1.80;;;16.50;99.90;;;;;;4230710;27;20271;-74
2022/01/08 07:30:53;;;;;;;4.22;1.98;;;16.50;99.90;;;;;;4229255;28;20762;-73
2022/01/08 07:32:56;;;;;;;4.65;2.22;;;16.50;99.90;;;;;;4229532;28;20221;-73
2022/01/08 07:34:59;;;;;;;5.28;2.00;;;16.50;99.90;;;;;;4245218;27;20233;-73
2022/01/08 07:37:01;;;;;;;4.90;1.90;;;16.50;99.90;;;;;;4227800;28;20266;-73
2022/01/08 07:39:04;;;;;;;3.73;1.90;;;16.50;99.90;;;;;;4228024;28;20217;-73
2022/01/08 07:41:06;;;;;;;3.70;2.20;;;16.50;99.90;;;;;;4243938;27;20775;-74
2022/01/08 07:43:08;;;;;;;3.85;1.92;;;16.50;99.90;;;;;;4246126;27;20217;-73
2022/01/08 07:45:12;;;;;;;2.97;1.90;;;16.50;99.90;;;;;;4246543;27;20254;-73
2022/01/08 07:47:14;;;;;;;3.50;2.00;;;16.50;99.90;;;;;;4246548;27;20665;-73
2022/01/08 07:49:18;;;;;;;5.70;2.20;;;16.50;99.90;;;;;;4246032;27;20225;-73
2022/01/08 07:51:20;;;;;;;4.72;2.10;;;16.50;99.90;;;;;;4228944;28;20616;-73
2022/01/08 07:53:22;;;;;;;4.40;1.87;;;16.50;99.90;;;;;;4227400;27;20226;-73
2022/01/08 07:55:25;;;;;;;3.58;1.58;;;16.40;99.90;;;;;;4229116;28;20628;-74
2022/01/08 07:57:28;;;;;;;4.00;1.87;;;16.50;99.90;;;;;;4229010;28;20674;-73
2022/01/08 07:59:30;;;;;;;4.32;2.10;;;16.50;99.90;;;;;;4229307;28;20210;-74
2022/01/08 08:01:32;;;;;;;3.45;1.88;;;16.50;99.90;;;;;;4229405;28;20225;-73
2022/01/08 08:03:35;;;;;;;3.17;1.85;;;16.50;99.90;;;;;;4229317;28;20222;-73
2022/01/08 08:05:41;;;;;;;2.80;1.77;;;16.40;99.90;;;;;;4228960;28;20210;-73
2022/01/08 08:07:44;;;;;;;4.72;2.03;;;16.40;99.90;;;;;;4229008;28;20209;-73
2022/01/08 08:09:46;;;;;;;3.53;2.08;;;16.40;99.90;;;;;;4228935;28;20217;-73
2022/01/08 08:11:48;;;;;;;4.40;1.60;;;16.50;99.90;;;;;;4229143;28;20758;-73
2022/01/08 08:13:51;;;;;;;3.83;1.70;;;16.50;99.90;;;;;;4229094;28;20312;-73
2022/01/08 08:15:53;;;;;;;3.25;1.77;;;16.60;99.90;;;;;;4229205;28;20263;-73
2022/01/08 08:17:55;;;;;;;3.10;1.60;;;16.60;99.90;;;;;;4224559;28;20218;-73
2022/01/08 08:19:58;;;;;;;4.40;1.83;;;16.60;99.90;;;;;;4225790;28;20251;-73
2022/01/08 08:22:01;;;;;;;2.75;1.40;;;16.60;99.90;;;;;;4226615;28;20209;-73
2022/01/08 08:24:05;;;;;;;3.88;1.88;;;16.70;99.90;;;;;;4226898;27;20209;-73
2022/01/08 08:26:08;;;;;;;2.70;1.48;;;16.70;99.90;;;;;;4226370;28;20255;-73
2022/01/08 08:28:10;;;;;;;3.13;1.80;;;16.70;99.90;;;;;;4226769;28;20665;-73
2022/01/08 08:30:13;;;;;;;3.33;1.67;;;16.70;99.90;;;;;;4226906;28;20650;-73
2022/01/08 08:32:15;;;;;;;2.80;1.40;;;16.70;99.90;;;;;;4227154;28;20599;-73
2022/01/08 08:34:18;;;;;;;5.18;2.17;;;16.80;99.90;;;;;;4226042;28;20274;-73
2022/01/08 08:36:20;;;;;;;3.00;1.55;;;16.80;99.90;;;;;;4225595;28;20271;-73
2022/01/08 08:38:24;;;;;;;4.30;1.65;;;16.80;99.90;;;;;;4225029;28;20286;-73
2022/01/08 08:40:26;;;;;;;3.08;1.70;;;16.80;99.90;;;;;;4227335;28;20234;-73
2022/01/08 08:42:29;;;;;;;3.92;1.70;;;16.90;99.90;;;;;;4226508;28;20621;-73
2022/01/08 08:44:32;;;;;;;6.15;1.90;;;16.90;99.90;;;;;;4224594;28;20254;-73
2022/01/08 08:46:34;;;;;;;2.90;1.80;;;16.90;99.90;;;;;;4225896;28;20275;-73
2022/01/08 08:48:36;;;;;;;3.08;1.67;;;16.90;99.90;;;;;;4234127;28;20225;-73
2022/01/08 08:50:39;;;;;;;2.38;1.67;;;16.90;99.90;;;;;;4227525;28;20217;-73
2022/01/08 08:52:42;;;;;;;2.60;1.52;;;17.00;99.90;;;;;;4225690;28;20225;-73
2022/01/08 08:54:45;;;;;;;4.38;1.90;;;17.00;99.90;;;;;;4225236;28;20345;-73
2022/01/08 08:56:48;;;;;;;2.97;1.73;;;16.90;99.90;;;;;;4225807;28;20278;-73
2022/01/08 08:58:50;;;;;;;4.22;2.08;;;17.00;99.90;;;;;;4225446;28;20673;-73
2022/01/08 09:00:53;;;;;;;3.08;1.85;;;17.00;99.90;;;;;;4225143;28;20255;-73
2022/01/08 09:02:55;;;;;;;3.22;2.00;;;17.00;99.90;;;;;;4225586;28;20607;-73
2022/01/08 09:04:58;;;;;;;3.55;1.75;;;17.00;99.90;;;;;;4225945;28;20226;-73
2022/01/08 09:07:01;;;;;;;4.38;2.00;;;17.00;99.90;;;;;;4226033;28;20670;-73
2022/01/08 09:09:04;;;;;;;2.83;1.80;;;17.10;99.90;;;;;;4225599;28;20221;-73
2022/01/08 09:11:07;;;;;;;5.25;2.20;;;17.10;99.90;;;;;;4225335;28;20213;-73
2022/01/08 09:13:10;;;;;;;3.88;1.48;;;17.10;99.90;;;;;;4224468;28;20267;-73
2022/01/08 09:15:14;;;;;;;3.35;1.70;;;17.10;99.90;;;;;;4226014;28;20275;-73
2022/01/08 09:17:17;;;;;;;2.83;1.75;;;17.10;99.90;;;;;;4227016;28;20213;-73
2022/01/08 09:19:20;;;;;;;2.45;1.45;;;17.10;99.90;;;;;;4231857;28;20217;-73
2022/01/08 09:21:23;;;;;;;3.92;1.80;;;17.20;99.90;;;;;;4226018;28;20255;-73
2022/01/08 09:23:25;;;;;;;3.67;1.83;;;17.10;99.90;;;;;;4227411;28;20259;-73
2022/01/08 09:25:28;;;;;;;4.43;1.73;;;17.20;99.90;;;;;;4227829;28;20214;-73
2022/01/08 09:27:32;;;;;;;3.25;1.90;;;17.10;99.90;;;;;;4224830;28;20259;-73
2022/01/08 09:29:34;;;;;;;4.05;2.15;;;17.20;99.90;;;;;;4226781;28;20266;-73
2022/01/08 09:31:38;;;;;;;3.10;1.77;;;17.20;99.90;;;;;;4224402;28;20286;-73
2022/01/08 09:33:41;;;;;;;2.15;1.70;;;17.20;99.90;;;;;;4235971;28;20262;-73
2022/01/08 09:35:43;;;;;;;3.28;1.80;;;17.20;99.90;;;;;;4224456;28;20237;-73
2022/01/08 09:37:46;;;;;;;3.70;2.03;;;17.20;99.90;;;;;;4225182;28;20210;-73
2022/01/08 09:39:48;;;;;;;3.38;1.77;;;17.20;99.90;;;;;;4226911;28;20655;-73
2022/01/08 09:41:50;;;;;;;3.75;2.08;;;17.20;99.90;;;;;;4224910;28;20210;-73
2022/01/08 09:43:54;;;;;;;3.03;1.60;;;17.20;99.90;;;;;;4225197;28;20263;-73
2022/01/08 09:45:56;;;;;;;3.35;1.70;;;17.20;99.90;;;;;;4232730;28;20206;-73
2022/01/08 09:47:59;;;;;;;2.72;1.60;;;17.30;99.90;;;;;;4224414;28;20214;-73
2022/01/08 09:50:02;;;;;;;5.28;2.10;;;17.30;99.90;;;;;;4225392;28;20236;-73
2022/01/08 09:52:05;;;;;;;4.25;1.65;;;17.30;99.90;;;;;;4226542;28;20271;-73
2022/01/08 09:54:08;;;;;;;4.75;1.60;;;17.30;99.90;;;;;;4227605;28;20214;-73
2022/01/08 09:56:11;;;;;;;1.95;1.50;;;17.30;99.90;;;;;;4228216;28;20295;-73
2022/01/08 09:58:13;;;;;;;2.38;1.30;;;17.30;99.90;;;;;;4228500;28;20218;-73
2022/01/08 10:00:19;;;;;;;3.08;1.58;;;17.30;99.90;;;;;;4229035;27;20620;-73
2022/01/08 10:02:22;;;;;;;3.22;1.77;;;17.30;99.90;;;;;;4235120;27;20270;-73
2022/01/08 10:04:25;;;;;;;1.98;1.33;;;17.20;99.90;;;;;;4230310;27;20247;-73
2022/01/08 10:06:29;;;;;;;3.95;1.80;;;17.20;99.90;;;;;;4228874;28;20267;-73
2022/01/08 10:08:33;;;;;;;1.95;1.50;;;17.20;99.90;;;;;;4227521;27;20260;-73
2022/01/08 10:10:36;;;;;;;3.58;1.52;;;17.20;99.90;;;;;;4226653;28;20244;-73
2022/01/08 10:12:41;;;;;;;3.78;1.73;;;17.20;99.90;;;;;;4227803;28;20214;-73
2022/01/08 10:17:16;;;;;;;3.25;1.77;;;17.30;99.90;;;;;;4229458;27;20217;-73
2022/01/08 10:19:20;;;;;;;2.47;1.30;;;17.30;99.90;;;;;;4230602;27;20446;-73
2022/01/08 10:21:25;;;;;;;2.95;1.50;;;17.30;99.90;;;;;;4228191;28;20233;-73
2022/01/08 10:23:29;;;;;;;2.08;1.38;;;17.30;99.90;;;;;;4227972;28;20279;-73
2022/01/08 10:25:32;;;;;;;3.58;1.70;;;17.40;99.90;;;;;;4226882;28;20711;-73
2022/01/08 10:27:36;;;;;;;3.03;1.50;;;17.40;99.90;;;;;;4228998;27;20266;-73
2022/01/08 10:29:38;;;;;;;2.65;1.55;;;17.40;99.90;;;;;;4228633;28;20262;-73
2022/01/08 10:31:42;;;;;;;2.53;1.38;;;17.40;99.90;;;;;;4228028;28;20283;-73
2022/01/08 10:33:49;;;;;;;3.38;1.42;;;17.40;99.90;;;;;;4231497;27;20217;-73
2022/01/08 10:35:53;;;;;;;2.67;1.45;;;17.40;99.90;;;;;;4228129;28;20283;-73
2022/01/08 10:37:55;;;;;;;1.58;1.23;;;17.40;99.90;;;;;;4227507;28;20236;-73
2022/01/08 10:39:57;;;;;;;2.65;1.42;;;17.40;99.90;;;;;;4229971;27;20217;-73
2022/01/08 10:42:02;;;;;;;3.50;1.38;;;17.40;99.90;;;;;;4238057;27;20250;-73
2022/01/08 10:44:10;;;;;;;2.95;1.63;;;17.40;99.90;;;;;;4235961;27;20258;-73
2022/01/08 10:46:17;;;;;;;2.92;1.40;;;17.40;99.90;;;;;;4238481;27;20209;-73
2022/01/08 10:48:30;;;;;;;2.53;1.60;;;17.40;99.90;;;;;;4228438;27;20217;-73
2022/01/08 10:50:34;;;;;;;3.92;1.33;;;17.40;99.90;;;;;;4227418;28;20217;-73
2022/01/08 10:52:42;;;;;;;3.80;1.40;;;17.40;99.90;;;;;;4226981;28;20269;-73
2022/01/08 10:54:47;;;;;;;1.33;1.20;;;17.40;99.90;;;;;;4227694;28;20221;-73
2022/01/08 10:56:51;;;;;;;2.55;1.27;;;17.50;99.90;;;;;;4226559;28;20237;-73
2022/01/08 10:58:59;;;;;;;3.33;1.35;;;17.50;99.90;;;;;;4236041;27;20279;-73
2022/01/08 11:01:02;;;;;;;2.95;1.40;;;17.40;99.90;;;;;;4226763;28;20665;-73
2022/01/08 11:03:04;;;;;;;2.72;1.35;;;17.50;99.90;;;;;;4226792;28;20221;-73